Ripley, Illinois
Current Conditions -  °F | °C
As of 9:15 PM on Saturday 22 Nov 2014 (Local Time) from KPPQ Reporting Station
Overcast Overcast  
Wind Chill: 54°   Ceiling: 1000
Heat Index: 54°   Visibility: 10mi
Dew Point: 49°   Wind: 12mph
Humidity: 85%   Direction: 170°S
Pressure: 29.86"   Gusts: NA
Location:  39.9985°N, 90.6925°W
Report Text: KPPQ 230315Z AUTO 17010KT 10SM OVC010 12/10 A2986 RMK AO2 T01210097 PWINO
Loading
Personal Weather Stations






























Interactive Weather Map New forecast layout! Learn more

10-Day Weather Forecast

Advertisements
Track Severe Weather on mobile